sensor_id;sensor_type;location;lat;lon;timestamp;P1;durP1;ratioP1;P2;durP2;ratioP2
67063;SDS011;58476;48.072;11.970;2023-01-15T00:01:25;2.10;;;1.65;;
67063;SDS011;58476;48.072;11.970;2023-01-15T00:03:56;3.83;;;2.13;;
67063;SDS011;58476;48.072;11.970;2023-01-15T00:06:23;2.42;;;1.90;;
67063;SDS011;58476;48.072;11.970;2023-01-15T00:08:49;2.78;;;2.08;;
67063;SDS011;58476;48.072;11.970;2023-01-15T00:11:15;4.40;;;1.90;;
67063;SDS011;58476;48.072;11.970;2023-01-15T00:13:40;5.15;;;1.77;;
67063;SDS011;58476;48.072;11.970;2023-01-15T00:16:08;4.13;;;1.73;;
67063;SDS011;58476;48.072;11.970;2023-01-15T00:18:35;1.98;;;1.63;;
67063;SDS011;58476;48.072;11.970;2023-01-15T00:21:01;3.08;;;1.88;;
67063;SDS011;58476;48.072;11.970;2023-01-15T00:23:27;4.25;;;1.75;;
67063;SDS011;58476;48.072;11.970;2023-01-15T00:25:54;3.85;;;2.08;;
67063;SDS011;58476;48.072;11.970;2023-01-15T00:28:20;3.25;;;1.80;;
67063;SDS011;58476;48.072;11.970;2023-01-15T00:30:45;3.92;;;1.92;;
67063;SDS011;58476;48.072;11.970;2023-01-15T00:33:11;2.83;;;1.80;;
67063;SDS011;58476;48.072;11.970;2023-01-15T00:35:36;4.30;;;1.90;;
67063;SDS011;58476;48.072;11.970;2023-01-15T00:38:01;3.25;;;1.73;;
67063;SDS011;58476;48.072;11.970;2023-01-15T00:40:28;2.92;;;1.73;;
67063;SDS011;58476;48.072;11.970;2023-01-15T00:42:53;5.03;;;1.60;;
67063;SDS011;58476;48.072;11.970;2023-01-15T00:45:18;4.90;;;1.90;;
67063;SDS011;58476;48.072;11.970;2023-01-15T00:47:45;2.67;;;1.88;;
67063;SDS011;58476;48.072;11.970;2023-01-15T00:50:12;5.15;;;1.67;;
67063;SDS011;58476;48.072;11.970;2023-01-15T00:52:39;6.10;;;1.80;;
67063;SDS011;58476;48.072;11.970;2023-01-15T00:55:05;4.22;;;1.60;;
67063;SDS011;58476;48.072;11.970;2023-01-15T00:57:31;8.13;;;2.17;;
67063;SDS011;58476;48.072;11.970;2023-01-15T00:59:57;3.75;;;1.75;;
67063;SDS011;58476;48.072;11.970;2023-01-15T01:02:22;3.15;;;1.88;;
67063;SDS011;58476;48.072;11.970;2023-01-15T01:04:48;6.15;;;2.15;;
67063;SDS011;58476;48.072;11.970;2023-01-15T01:07:13;5.85;;;1.50;;
67063;SDS011;58476;48.072;11.970;2023-01-15T01:09:40;3.42;;;1.60;;
67063;SDS011;58476;48.072;11.970;2023-01-15T01:12:05;3.95;;;1.67;;
67063;SDS011;58476;48.072;11.970;2023-01-15T01:14:31;4.30;;;1.60;;
67063;SDS011;58476;48.072;11.970;2023-01-15T01:16:56;2.70;;;1.80;;
67063;SDS011;58476;48.072;11.970;2023-01-15T01:19:22;2.95;;;1.70;;
67063;SDS011;58476;48.072;11.970;2023-01-15T01:21:49;5.10;;;1.88;;
67063;SDS011;58476;48.072;11.970;2023-01-15T01:24:16;6.97;;;1.70;;
67063;SDS011;58476;48.072;11.970;2023-01-15T01:26:44;2.78;;;1.60;;
67063;SDS011;58476;48.072;11.970;2023-01-15T01:29:10;4.10;;;1.70;;
67063;SDS011;58476;48.072;11.970;2023-01-15T01:31:45;3.08;;;1.70;;
67063;SDS011;58476;48.072;11.970;2023-01-15T01:34:11;2.72;;;1.58;;
67063;SDS011;58476;48.072;11.970;2023-01-15T01:36:39;2.88;;;1.73;;
67063;SDS011;58476;48.072;11.970;2023-01-15T01:39:06;2.92;;;1.60;;
67063;SDS011;58476;48.072;11.970;2023-01-15T01:41:34;2.67;;;1.58;;
67063;SDS011;58476;48.072;11.970;2023-01-15T01:44:03;3.25;;;1.65;;
67063;SDS011;58476;48.072;11.970;2023-01-15T01:46:49;6.38;;;1.60;;
67063;SDS011;58476;48.072;11.970;2023-01-15T01:49:15;4.97;;;1.60;;
67063;SDS011;58476;48.072;11.970;2023-01-15T01:51:50;3.35;;;1.63;;
67063;SDS011;58476;48.072;11.970;2023-01-15T01:54:20;4.78;;;1.73;;
67063;SDS011;58476;48.072;11.970;2023-01-15T01:56:49;6.65;;;1.70;;
67063;SDS011;58476;48.072;11.970;2023-01-15T01:59:16;7.25;;;1.92;;
67063;SDS011;58476;48.072;11.970;2023-01-15T02:01:43;6.90;;;1.60;;
67063;SDS011;58476;48.072;11.970;2023-01-15T02:04:09;3.92;;;1.55;;
67063;SDS011;58476;48.072;11.970;2023-01-15T02:06:36;3.25;;;1.55;;
67063;SDS011;58476;48.072;11.970;2023-01-15T02:09:03;6.43;;;1.58;;
67063;SDS011;58476;48.072;11.970;2023-01-15T02:11:31;5.30;;;1.70;;
67063;SDS011;58476;48.072;11.970;2023-01-15T02:16:34;6.88;;;1.58;;
67063;SDS011;58476;48.072;11.970;2023-01-15T02:32:25;9.48;;;2.15;;
67063;SDS011;58476;48.072;11.970;2023-01-15T02:34:56;9.75;;;2.08;;
67063;SDS011;58476;48.072;11.970;2023-01-15T02:37:26;8.07;;;1.77;;
67063;SDS011;58476;48.072;11.970;2023-01-15T02:39:55;10.95;;;1.92;;
67063;SDS011;58476;48.072;11.970;2023-01-15T02:42:24;15.00;;;2.60;;
67063;SDS011;58476;48.072;11.970;2023-01-15T02:44:53;17.77;;;2.83;;
67063;SDS011;58476;48.072;11.970;2023-01-15T02:47:23;12.88;;;2.15;;
67063;SDS011;58476;48.072;11.970;2023-01-15T02:49:56;8.32;;;1.80;;
67063;SDS011;58476;48.072;11.970;2023-01-15T02:52:26;12.10;;;2.10;;
67063;SDS011;58476;48.072;11.970;2023-01-15T02:54:57;17.40;;;3.97;;
67063;SDS011;58476;48.072;11.970;2023-01-15T02:57:27;19.80;;;3.05;;
67063;SDS011;58476;48.072;11.970;2023-01-15T02:59:57;14.38;;;2.05;;
67063;SDS011;58476;48.072;11.970;2023-01-15T03:02:24;11.13;;;2.58;;
67063;SDS011;58476;48.072;11.970;2023-01-15T03:05:07;14.93;;;2.65;;
67063;SDS011;58476;48.072;11.970;2023-01-15T03:07:40;10.23;;;2.00;;
67063;SDS011;58476;48.072;11.970;2023-01-15T03:10:11;11.07;;;1.80;;
67063;SDS011;58476;48.072;11.970;2023-01-15T03:12:44;7.95;;;2.00;;
67063;SDS011;58476;48.072;11.970;2023-01-15T03:15:22;9.13;;;1.90;;
67063;SDS011;58476;48.072;11.970;2023-01-15T03:17:53;9.45;;;2.00;;
67063;SDS011;58476;48.072;11.970;2023-01-15T03:20:22;6.82;;;2.05;;
67063;SDS011;58476;48.072;11.970;2023-01-15T03:22:52;5.25;;;1.73;;
67063;SDS011;58476;48.072;11.970;2023-01-15T03:25:22;16.67;;;2.10;;
67063;SDS011;58476;48.072;11.970;2023-01-15T03:27:52;7.70;;;1.80;;
67063;SDS011;58476;48.072;11.970;2023-01-15T03:30:22;9.13;;;1.90;;
67063;SDS011;58476;48.072;11.970;2023-01-15T03:32:49;5.65;;;1.83;;
67063;SDS011;58476;48.072;11.970;2023-01-15T03:38:38;6.32;;;1.70;;
67063;SDS011;58476;48.072;11.970;2023-01-15T03:46:50;11.13;;;1.75;;
67063;SDS011;58476;48.072;11.970;2023-01-15T03:51:54;8.98;;;1.90;;
67063;SDS011;58476;48.072;11.970;2023-01-15T03:54:41;5.90;;;1.58;;
67063;SDS011;58476;48.072;11.970;2023-01-15T03:57:20;9.10;;;1.63;;
67063;SDS011;58476;48.072;11.970;2023-01-15T03:59:53;7.85;;;1.60;;
67063;SDS011;58476;48.072;11.970;2023-01-15T04:02:22;7.65;;;2.17;;
67063;SDS011;58476;48.072;11.970;2023-01-15T04:04:49;6.13;;;1.70;;
67063;SDS011;58476;48.072;11.970;2023-01-15T04:07:16;4.03;;;1.50;;
67063;SDS011;58476;48.072;11.970;2023-01-15T04:09:42;8.75;;;1.70;;
67063;SDS011;58476;48.072;11.970;2023-01-15T04:12:10;10.02;;;2.17;;
67063;SDS011;58476;48.072;11.970;2023-01-15T04:14:39;10.57;;;1.77;;
67063;SDS011;58476;48.072;11.970;2023-01-15T04:17:07;4.22;;;1.48;;
67063;SDS011;58476;48.072;11.970;2023-01-15T04:19:32;6.05;;;1.50;;
67063;SDS011;58476;48.072;11.970;2023-01-15T04:22:01;5.07;;;1.45;;
67063;SDS011;58476;48.072;11.970;2023-01-15T04:24:26;4.55;;;1.50;;
67063;SDS011;58476;48.072;11.970;2023-01-15T04:26:52;4.80;;;1.35;;
67063;SDS011;58476;48.072;11.970;2023-01-15T04:29:17;5.60;;;1.70;;
67063;SDS011;58476;48.072;11.970;2023-01-15T04:31:43;4.57;;;1.30;;
67063;SDS011;58476;48.072;11.970;2023-01-15T04:34:08;6.28;;;1.77;;
67063;SDS011;58476;48.072;11.970;2023-01-15T04:36:33;5.47;;;1.35;;
67063;SDS011;58476;48.072;11.970;2023-01-15T04:38:59;6.85;;;1.42;;
67063;SDS011;58476;48.072;11.970;2023-01-15T04:41:24;4.57;;;1.48;;
67063;SDS011;58476;48.072;11.970;2023-01-15T04:43:49;3.40;;;1.40;;
67063;SDS011;58476;48.072;11.970;2023-01-15T04:46:15;6.95;;;1.40;;
67063;SDS011;58476;48.072;11.970;2023-01-15T04:48:44;4.45;;;1.40;;
67063;SDS011;58476;48.072;11.970;2023-01-15T04:51:09;2.63;;;1.30;;
67063;SDS011;58476;48.072;11.970;2023-01-15T04:53:35;6.82;;;1.50;;
67063;SDS011;58476;48.072;11.970;2023-01-15T04:56:00;3.17;;;1.42;;
67063;SDS011;58476;48.072;11.970;2023-01-15T04:58:27;3.63;;;1.40;;
67063;SDS011;58476;48.072;11.970;2023-01-15T05:00:52;3.47;;;1.42;;
67063;SDS011;58476;48.072;11.970;2023-01-15T05:03:18;6.03;;;1.33;;
67063;SDS011;58476;48.072;11.970;2023-01-15T05:05:43;4.65;;;1.40;;
67063;SDS011;58476;48.072;11.970;2023-01-15T05:08:08;3.00;;;1.30;;
67063;SDS011;58476;48.072;11.970;2023-01-15T05:10:34;2.40;;;1.30;;
67063;SDS011;58476;48.072;11.970;2023-01-15T05:12:59;3.65;;;1.27;;
67063;SDS011;58476;48.072;11.970;2023-01-15T05:15:24;3.53;;;1.40;;
67063;SDS011;58476;48.072;11.970;2023-01-15T05:17:50;5.05;;;1.38;;
67063;SDS011;58476;48.072;11.970;2023-01-15T05:20:15;2.60;;;1.20;;
67063;SDS011;58476;48.072;11.970;2023-01-15T05:22:41;1.23;;;1.13;;
67063;SDS011;58476;48.072;11.970;2023-01-15T05:25:06;4.63;;;1.55;;
67063;SDS011;58476;48.072;11.970;2023-01-15T05:27:31;2.55;;;1.30;;
67063;SDS011;58476;48.072;11.970;2023-01-15T05:29:57;1.92;;;1.33;;
67063;SDS011;58476;48.072;11.970;2023-01-15T05:32:22;2.85;;;1.20;;
67063;SDS011;58476;48.072;11.970;2023-01-15T05:34:47;1.67;;;1.20;;
67063;SDS011;58476;48.072;11.970;2023-01-15T05:37:13;4.70;;;1.50;;
67063;SDS011;58476;48.072;11.970;2023-01-15T05:39:38;4.75;;;1.30;;
67063;SDS011;58476;48.072;11.970;2023-01-15T05:42:03;1.77;;;1.25;;
67063;SDS011;58476;48.072;11.970;2023-01-15T05:44:29;4.68;;;1.17;;
67063;SDS011;58476;48.072;11.970;2023-01-15T05:46:56;1.70;;;1.33;;
67063;SDS011;58476;48.072;11.970;2023-01-15T05:49:24;2.53;;;1.10;;
67063;SDS011;58476;48.072;11.970;2023-01-15T05:51:51;1.40;;;1.08;;
67063;SDS011;58476;48.072;11.970;2023-01-15T05:54:18;1.58;;;1.10;;
67063;SDS011;58476;48.072;11.970;2023-01-15T05:56:45;3.75;;;1.30;;
67063;SDS011;58476;48.072;11.970;2023-01-15T05:59:11;6.68;;;1.30;;
67063;SDS011;58476;48.072;11.970;2023-01-15T06:01:37;3.22;;;1.25;;
67063;SDS011;58476;48.072;11.970;2023-01-15T06:04:03;3.40;;;1.17;;
67063;SDS011;58476;48.072;11.970;2023-01-15T06:06:29;4.15;;;1.08;;
67063;SDS011;58476;48.072;11.970;2023-01-15T06:08:55;1.15;;;1.05;;
67063;SDS011;58476;48.072;11.970;2023-01-15T06:11:20;2.67;;;1.20;;
67063;SDS011;58476;48.072;11.970;2023-01-15T06:13:45;1.58;;;1.08;;
67063;SDS011;58476;48.072;11.970;2023-01-15T06:16:11;3.38;;;1.00;;
67063;SDS011;58476;48.072;11.970;2023-01-15T06:18:37;1.60;;;1.02;;
67063;SDS011;58476;48.072;11.970;2023-01-15T06:21:03;1.98;;;1.23;;
67063;SDS011;58476;48.072;11.970;2023-01-15T06:23:30;1.10;;;1.00;;
67063;SDS011;58476;48.072;11.970;2023-01-15T06:25:58;3.85;;;1.05;;
67063;SDS011;58476;48.072;11.970;2023-01-15T06:28:24;1.20;;;1.10;;
67063;SDS011;58476;48.072;11.970;2023-01-15T06:30:50;2.75;;;1.02;;
67063;SDS011;58476;48.072;11.970;2023-01-15T06:33:15;2.08;;;1.08;;
67063;SDS011;58476;48.072;11.970;2023-01-15T06:35:41;2.63;;;1.20;;
67063;SDS011;58476;48.072;11.970;2023-01-15T06:38:06;1.98;;;0.95;;
67063;SDS011;58476;48.072;11.970;2023-01-15T06:40:31;2.22;;;1.10;;
67063;SDS011;58476;48.072;11.970;2023-01-15T06:42:57;2.15;;;1.10;;
67063;SDS011;58476;48.072;11.970;2023-01-15T06:45:23;1.48;;;1.15;;
67063;SDS011;58476;48.072;11.970;2023-01-15T06:47:48;1.10;;;1.00;;
67063;SDS011;58476;48.072;11.970;2023-01-15T06:50:13;5.90;;;1.20;;
67063;SDS011;58476;48.072;11.970;2023-01-15T06:52:39;1.90;;;1.30;;
67063;SDS011;58476;48.072;11.970;2023-01-15T06:55:05;10.73;;;1.40;;
67063;SDS011;58476;48.072;11.970;2023-01-15T06:57:30;1.88;;;1.30;;
67063;SDS011;58476;48.072;11.970;2023-01-15T06:59:56;1.45;;;1.13;;
67063;SDS011;58476;48.072;11.970;2023-01-15T07:02:21;2.22;;;1.13;;
67063;SDS011;58476;48.072;11.970;2023-01-15T07:04:46;2.90;;;1.10;;
67063;SDS011;58476;48.072;11.970;2023-01-15T07:07:13;1.75;;;1.40;;
67063;SDS011;58476;48.072;11.970;2023-01-15T07:09:39;2.45;;;1.23;;
67063;SDS011;58476;48.072;11.970;2023-01-15T07:12:05;3.20;;;1.40;;
67063;SDS011;58476;48.072;11.970;2023-01-15T07:14:30;2.47;;;1.30;;
67063;SDS011;58476;48.072;11.970;2023-01-15T07:16:55;2.25;;;1.30;;
67063;SDS011;58476;48.072;11.970;2023-01-15T07:19:21;1.48;;;1.15;;
67063;SDS011;58476;48.072;11.970;2023-01-15T07:21:46;1.52;;;1.25;;
67063;SDS011;58476;48.072;11.970;2023-01-15T07:24:12;14.68;;;1.45;;
67063;SDS011;58476;48.072;11.970;2023-01-15T07:26:38;17.45;;;1.85;;
67063;SDS011;58476;48.072;11.970;2023-01-15T07:29:04;11.20;;;1.45;;
67063;SDS011;58476;48.072;11.970;2023-01-15T07:31:30;6.18;;;1.13;;
67063;SDS011;58476;48.072;11.970;2023-01-15T07:33:56;3.97;;;1.30;;
67063;SDS011;58476;48.072;11.970;2023-01-15T07:36:21;8.75;;;1.40;;
67063;SDS011;58476;48.072;11.970;2023-01-15T07:38:47;3.30;;;1.17;;
67063;SDS011;58476;48.072;11.970;2023-01-15T07:41:12;5.78;;;1.40;;
67063;SDS011;58476;48.072;11.970;2023-01-15T07:43:38;11.82;;;1.52;;
67063;SDS011;58476;48.072;11.970;2023-01-15T07:46:04;7.40;;;1.50;;
67063;SDS011;58476;48.072;11.970;2023-01-15T07:48:29;4.53;;;1.30;;
67063;SDS011;58476;48.072;11.970;2023-01-15T07:50:55;6.35;;;1.50;;
67063;SDS011;58476;48.072;11.970;2023-01-15T07:53:20;5.10;;;1.33;;
67063;SDS011;58476;48.072;11.970;2023-01-15T07:55:45;13.52;;;1.50;;
67063;SDS011;58476;48.072;11.970;2023-01-15T07:58:11;8.75;;;1.30;;
67063;SDS011;58476;48.072;11.970;2023-01-15T08:00:36;6.40;;;1.30;;
67063;SDS011;58476;48.072;11.970;2023-01-15T08:03:02;7.95;;;1.23;;
67063;SDS011;58476;48.072;11.970;2023-01-15T08:05:27;3.28;;;1.23;;
67063;SDS011;58476;48.072;11.970;2023-01-15T08:07:52;8.07;;;1.38;;
67063;SDS011;58476;48.072;11.970;2023-01-15T08:10:18;3.80;;;1.30;;
67063;SDS011;58476;48.072;11.970;2023-01-15T08:12:43;2.03;;;0.90;;
67063;SDS011;58476;48.072;11.970;2023-01-15T08:15:08;3.70;;;1.33;;
67063;SDS011;58476;48.072;11.970;2023-01-15T08:17:35;7.50;;;1.33;;
67063;SDS011;58476;48.072;11.970;2023-01-15T08:20:01;2.75;;;1.27;;
67063;SDS011;58476;48.072;11.970;2023-01-15T08:22:28;2.67;;;1.33;;
67063;SDS011;58476;48.072;11.970;2023-01-15T08:24:53;5.10;;;1.17;;
67063;SDS011;58476;48.072;11.970;2023-01-15T08:27:19;7.95;;;1.40;;
67063;SDS011;58476;48.072;11.970;2023-01-15T08:29:44;6.78;;;1.20;;
67063;SDS011;58476;48.072;11.970;2023-01-15T08:32:09;5.65;;;1.98;;
67063;SDS011;58476;48.072;11.970;2023-01-15T08:34:35;1.67;;;1.40;;
67063;SDS011;58476;48.072;11.970;2023-01-15T08:37:00;3.75;;;1.20;;
67063;SDS011;58476;48.072;11.970;2023-01-15T08:39:26;2.85;;;1.27;;
67063;SDS011;58476;48.072;11.970;2023-01-15T08:41:52;6.55;;;1.27;;
67063;SDS011;58476;48.072;11.970;2023-01-15T08:44:18;3.92;;;1.30;;
67063;SDS011;58476;48.072;11.970;2023-01-15T08:46:43;5.03;;;1.33;;
67063;SDS011;58476;48.072;11.970;2023-01-15T08:49:09;6.10;;;1.50;;
67063;SDS011;58476;48.072;11.970;2023-01-15T08:51:34;7.50;;;1.20;;
67063;SDS011;58476;48.072;11.970;2023-01-15T08:54:00;5.95;;;1.40;;
67063;SDS011;58476;48.072;11.970;2023-01-15T08:56:25;6.82;;;1.38;;
67063;SDS011;58476;48.072;11.970;2023-01-15T08:58:50;3.55;;;1.60;;
67063;SDS011;58476;48.072;11.970;2023-01-15T09:01:16;9.27;;;1.50;;
67063;SDS011;58476;48.072;11.970;2023-01-15T09:03:41;6.38;;;1.60;;
67063;SDS011;58476;48.072;11.970;2023-01-15T09:06:07;2.05;;;1.35;;
67063;SDS011;58476;48.072;11.970;2023-01-15T09:08:33;2.92;;;1.38;;
67063;SDS011;58476;48.072;11.970;2023-01-15T09:11:00;4.35;;;1.35;;
67063;SDS011;58476;48.072;11.970;2023-01-15T09:13:26;5.72;;;1.27;;
67063;SDS011;58476;48.072;11.970;2023-01-15T09:15:57;2.65;;;1.38;;
67063;SDS011;58476;48.072;11.970;2023-01-15T09:18:26;2.38;;;1.58;;
67063;SDS011;58476;48.072;11.970;2023-01-15T09:20:51;3.13;;;1.70;;
67063;SDS011;58476;48.072;11.970;2023-01-15T09:23:17;8.18;;;1.42;;
67063;SDS011;58476;48.072;11.970;2023-01-15T09:25:56;1.98;;;1.38;;
67063;SDS011;58476;48.072;11.970;2023-01-15T09:28:29;6.47;;;1.63;;
67063;SDS011;58476;48.072;11.970;2023-01-15T09:30:54;2.45;;;1.50;;
67063;SDS011;58476;48.072;11.970;2023-01-15T09:33:19;5.97;;;1.50;;
67063;SDS011;58476;48.072;11.970;2023-01-15T09:35:45;3.70;;;1.30;;
67063;SDS011;58476;48.072;11.970;2023-01-15T09:38:11;7.35;;;1.52;;
67063;SDS011;58476;48.072;11.970;2023-01-15T09:40:50;5.95;;;1.70;;
67063;SDS011;58476;48.072;11.970;2023-01-15T09:46:22;6.60;;;1.50;;
67063;SDS011;58476;48.072;11.970;2023-01-15T09:49:28;4.25;;;1.30;;
67063;SDS011;58476;48.072;11.970;2023-01-15T09:57:09;1.38;;;1.15;;
67063;SDS011;58476;48.072;11.970;2023-01-15T09:59:37;5.50;;;1.65;;
67063;SDS011;58476;48.072;11.970;2023-01-15T10:02:24;4.07;;;1.30;;
67063;SDS011;58476;48.072;11.970;2023-01-15T10:04:52;5.07;;;1.35;;
67063;SDS011;58476;48.072;11.970;2023-01-15T10:10:16;5.55;;;1.70;;
67063;SDS011;58476;48.072;11.970;2023-01-15T10:12:45;8.95;;;2.28;;
67063;SDS011;58476;48.072;11.970;2023-01-15T10:17:41;7.30;;;1.90;;
67063;SDS011;58476;48.072;11.970;2023-01-15T10:25:47;87.80;;;28.17;;
67063;SDS011;58476;48.072;11.970;2023-01-15T10:28:25;138.07;;;39.45;;
67063;SDS011;58476;48.072;11.970;2023-01-15T10:30:54;101.88;;;29.95;;
67063;SDS011;58476;48.072;11.970;2023-01-15T10:36:31;83.82;;;25.35;;
67063;SDS011;58476;48.072;11.970;2023-01-15T10:39:21;74.68;;;23.05;;
67063;SDS011;58476;48.072;11.970;2023-01-15T10:44:59;65.10;;;19.67;;
67063;SDS011;58476;48.072;11.970;2023-01-15T10:47:41;67.47;;;18.98;;
67063;SDS011;58476;48.072;11.970;2023-01-15T10:50:20;62.83;;;17.13;;
67063;SDS011;58476;48.072;11.970;2023-01-15T10:52:48;56.03;;;14.95;;
67063;SDS011;58476;48.072;11.970;2023-01-15T10:58:29;39.58;;;12.68;;
67063;SDS011;58476;48.072;11.970;2023-01-15T11:01:19;38.40;;;11.35;;
67063;SDS011;58476;48.072;11.970;2023-01-15T11:03:48;33.28;;;10.73;;
67063;SDS011;58476;48.072;11.970;2023-01-15T11:06:16;35.38;;;10.32;;
67063;SDS011;58476;48.072;11.970;2023-01-15T11:08:50;33.38;;;10.60;;
67063;SDS011;58476;48.072;11.970;2023-01-15T11:11:21;33.75;;;10.02;;
67063;SDS011;58476;48.072;11.970;2023-01-15T11:13:51;33.65;;;9.10;;
67063;SDS011;58476;48.072;11.970;2023-01-15T11:16:21;36.22;;;8.02;;
67063;SDS011;58476;48.072;11.970;2023-01-15T11:18:49;31.25;;;7.47;;
67063;SDS011;58476;48.072;11.970;2023-01-15T11:21:16;26.17;;;6.53;;
67063;SDS011;58476;48.072;11.970;2023-01-15T11:23:44;22.55;;;5.85;;
67063;SDS011;58476;48.072;11.970;2023-01-15T11:26:16;13.80;;;4.38;;
67063;SDS011;58476;48.072;11.970;2023-01-15T11:28:46;13.27;;;3.55;;
67063;SDS011;58476;48.072;11.970;2023-01-15T11:31:12;9.32;;;3.03;;
67063;SDS011;58476;48.072;11.970;2023-01-15T11:33:38;11.50;;;3.05;;
67063;SDS011;58476;48.072;11.970;2023-01-15T11:36:18;33.70;;;5.00;;
67063;SDS011;58476;48.072;11.970;2023-01-15T11:38:46;14.25;;;2.45;;
67063;SDS011;58476;48.072;11.970;2023-01-15T11:41:18;12.32;;;2.80;;
67063;SDS011;58476;48.072;11.970;2023-01-15T11:46:31;14.35;;;3.30;;
67063;SDS011;58476;48.072;11.970;2023-01-15T11:48:56;11.65;;;3.05;;
67063;SDS011;58476;48.072;11.970;2023-01-15T11:51:21;10.82;;;3.22;;
67063;SDS011;58476;48.072;11.970;2023-01-15T11:53:48;13.27;;;2.85;;
67063;SDS011;58476;48.072;11.970;2023-01-15T12:01:12;11.82;;;2.80;;
67063;SDS011;58476;48.072;11.970;2023-01-15T12:03:45;12.15;;;2.78;;
67063;SDS011;58476;48.072;11.970;2023-01-15T12:06:11;9.77;;;2.40;;
67063;SDS011;58476;48.072;11.970;2023-01-15T12:08:42;10.38;;;3.25;;
67063;SDS011;58476;48.072;11.970;2023-01-15T12:16:15;11.73;;;2.17;;
67063;SDS011;58476;48.072;11.970;2023-01-15T12:18:55;8.73;;;2.33;;
67063;SDS011;58476;48.072;11.970;2023-01-15T12:24:12;6.85;;;2.20;;
67063;SDS011;58476;48.072;11.970;2023-01-15T12:29:42;10.75;;;2.78;;
67063;SDS011;58476;48.072;11.970;2023-01-15T12:32:09;8.13;;;2.40;;
67063;SDS011;58476;48.072;11.970;2023-01-15T12:37:25;7.57;;;2.30;;
67063;SDS011;58476;48.072;11.970;2023-01-15T12:39:56;10.77;;;2.35;;
67063;SDS011;58476;48.072;11.970;2023-01-15T12:42:22;9.95;;;2.10;;
67063;SDS011;58476;48.072;11.970;2023-01-15T12:47:24;10.20;;;2.03;;
67063;SDS011;58476;48.072;11.970;2023-01-15T12:49:56;6.57;;;1.80;;
67063;SDS011;58476;48.072;11.970;2023-01-15T12:52:42;5.32;;;1.40;;
67063;SDS011;58476;48.072;11.970;2023-01-15T12:57:36;5.25;;;1.73;;
67063;SDS011;58476;48.072;11.970;2023-01-15T13:00:11;4.97;;;1.70;;
67063;SDS011;58476;48.072;11.970;2023-01-15T13:05:38;6.43;;;1.63;;
67063;SDS011;58476;48.072;11.970;2023-01-15T13:11:15;4.45;;;1.48;;
67063;SDS011;58476;48.072;11.970;2023-01-15T13:13:41;3.97;;;1.40;;
67063;SDS011;58476;48.072;11.970;2023-01-15T13:16:21;3.03;;;1.50;;
67063;SDS011;58476;48.072;11.970;2023-01-15T13:21:51;3.63;;;1.52;;
67063;SDS011;58476;48.072;11.970;2023-01-15T13:24:26;3.92;;;1.60;;
67063;SDS011;58476;48.072;11.970;2023-01-15T13:26:57;3.35;;;1.30;;
67063;SDS011;58476;48.072;11.970;2023-01-15T13:37:26;2.85;;;1.30;;
67063;SDS011;58476;48.072;11.970;2023-01-15T13:40:03;2.35;;;1.20;;
67063;SDS011;58476;48.072;11.970;2023-01-15T13:42:38;3.63;;;1.30;;
67063;SDS011;58476;48.072;11.970;2023-01-15T13:45:05;3.40;;;1.10;;
67063;SDS011;58476;48.072;11.970;2023-01-15T13:47:32;4.63;;;1.63;;
67063;SDS011;58476;48.072;11.970;2023-01-15T13:50:05;3.22;;;1.13;;
67063;SDS011;58476;48.072;11.970;2023-01-15T13:52:39;3.88;;;1.08;;
67063;SDS011;58476;48.072;11.970;2023-01-15T13:57:40;6.00;;;1.38;;
67063;SDS011;58476;48.072;11.970;2023-01-15T14:00:07;3.38;;;1.30;;
67063;SDS011;58476;48.072;11.970;2023-01-15T14:02:51;5.78;;;1.88;;
67063;SDS011;58476;48.072;11.970;2023-01-15T14:05:25;3.08;;;1.20;;
67063;SDS011;58476;48.072;11.970;2023-01-15T14:07:55;2.65;;;1.02;;
67063;SDS011;58476;48.072;11.970;2023-01-15T14:13:24;2.58;;;1.23;;
67063;SDS011;58476;48.072;11.970;2023-01-15T14:16:03;3.67;;;1.40;;
67063;SDS011;58476;48.072;11.970;2023-01-15T14:18:45;2.58;;;0.95;;
67063;SDS011;58476;48.072;11.970;2023-01-15T14:21:37;3.40;;;1.25;;
67063;SDS011;58476;48.072;11.970;2023-01-15T14:26:49;2.25;;;1.05;;
67063;SDS011;58476;48.072;11.970;2023-01-15T14:35:32;7.35;;;1.00;;
67063;SDS011;58476;48.072;11.970;2023-01-15T14:38:02;5.38;;;1.33;;
67063;SDS011;58476;48.072;11.970;2023-01-15T14:40:32;4.82;;;1.05;;
67063;SDS011;58476;48.072;11.970;2023-01-15T14:43:00;2.05;;;1.20;;
67063;SDS011;58476;48.072;11.970;2023-01-15T14:45:32;3.53;;;1.15;;
67063;SDS011;58476;48.072;11.970;2023-01-15T14:50:51;9.00;;;1.30;;
67063;SDS011;58476;48.072;11.970;2023-01-15T14:53:30;23.27;;;3.33;;
67063;SDS011;58476;48.072;11.970;2023-01-15T15:01:13;5.03;;;1.13;;
67063;SDS011;58476;48.072;11.970;2023-01-15T15:03:43;6.43;;;1.30;;
67063;SDS011;58476;48.072;11.970;2023-01-15T15:06:14;4.63;;;1.35;;
67063;SDS011;58476;48.072;11.970;2023-01-15T15:08:39;6.47;;;1.10;;
67063;SDS011;58476;48.072;11.970;2023-01-15T15:11:07;3.55;;;1.00;;
67063;SDS011;58476;48.072;11.970;2023-01-15T15:13:42;3.10;;;0.82;;
67063;SDS011;58476;48.072;11.970;2023-01-15T15:17:12;1.45;;;0.70;;
67063;SDS011;58476;48.072;11.970;2023-01-15T15:19:12;2.30;;;0.83;;
67063;SDS011;58476;48.072;11.970;2023-01-15T15:21:42;2.22;;;0.73;;
67063;SDS011;58476;48.072;11.970;2023-01-15T15:26:56;3.92;;;1.10;;
67063;SDS011;58476;48.072;11.970;2023-01-15T15:29:21;2.95;;;0.90;;
67063;SDS011;58476;48.072;11.970;2023-01-15T15:31:55;2.97;;;0.90;;
67063;SDS011;58476;48.072;11.970;2023-01-15T15:34:25;2.60;;;1.10;;
67063;SDS011;58476;48.072;11.970;2023-01-15T15:36:51;0.95;;;0.70;;
67063;SDS011;58476;48.072;11.970;2023-01-15T15:44:59;2.17;;;0.77;;
67063;SDS011;58476;48.072;11.970;2023-01-15T15:47:25;0.60;;;0.43;;
67063;SDS011;58476;48.072;11.970;2023-01-15T15:49:51;2.97;;;0.70;;
67063;SDS011;58476;48.072;11.970;2023-01-15T15:52:20;1.45;;;0.77;;
67063;SDS011;58476;48.072;11.970;2023-01-15T15:54:55;3.63;;;0.80;;
67063;SDS011;58476;48.072;11.970;2023-01-15T15:57:22;3.10;;;0.80;;
67063;SDS011;58476;48.072;11.970;2023-01-15T15:59:48;2.17;;;0.70;;
67063;SDS011;58476;48.072;11.970;2023-01-15T16:04:52;1.63;;;0.60;;
67063;SDS011;58476;48.072;11.970;2023-01-15T16:07:20;2.88;;;0.70;;
67063;SDS011;58476;48.072;11.970;2023-01-15T16:09:57;3.08;;;0.68;;
67063;SDS011;58476;48.072;11.970;2023-01-15T16:12:25;4.55;;;0.60;;
67063;SDS011;58476;48.072;11.970;2023-01-15T16:14:55;0.95;;;0.85;;
67063;SDS011;58476;48.072;11.970;2023-01-15T16:17:21;2.78;;;0.90;;
67063;SDS011;58476;48.072;11.970;2023-01-15T16:19:49;1.65;;;0.70;;
67063;SDS011;58476;48.072;11.970;2023-01-15T16:22:15;2.08;;;0.75;;
67063;SDS011;58476;48.072;11.970;2023-01-15T16:24:51;3.50;;;0.68;;
67063;SDS011;58476;48.072;11.970;2023-01-15T16:27:17;3.25;;;1.08;;
67063;SDS011;58476;48.072;11.970;2023-01-15T16:29:46;2.58;;;0.70;;
67063;SDS011;58476;48.072;11.970;2023-01-15T16:32:16;2.63;;;0.90;;
67063;SDS011;58476;48.072;11.970;2023-01-15T16:34:47;1.33;;;0.70;;
67063;SDS011;58476;48.072;11.970;2023-01-15T16:37:34;5.38;;;0.88;;
67063;SDS011;58476;48.072;11.970;2023-01-15T16:39:59;0.50;;;0.50;;
67063;SDS011;58476;48.072;11.970;2023-01-15T16:42:44;3.72;;;0.80;;
67063;SDS011;58476;48.072;11.970;2023-01-15T16:45:25;1.27;;;1.00;;
67063;SDS011;58476;48.072;11.970;2023-01-15T16:50:32;1.90;;;0.60;;
67063;SDS011;58476;48.072;11.970;2023-01-15T16:53:02;2.17;;;0.68;;
67063;SDS011;58476;48.072;11.970;2023-01-15T17:00:43;1.50;;;0.65;;